createdAt,value
2016-04-23T00:00:25.716Z,19.58
2016-04-23T00:01:25.719Z,19.55
2016-04-23T00:02:25.675Z,19.57
2016-04-23T00:03:26.068Z,19.57
2016-04-23T00:04:25.649Z,19.57
2016-04-23T00:05:25.621Z,19.53
2016-04-23T00:06:25.608Z,19.52
2016-04-23T00:07:25.595Z,19.52
2016-04-23T00:08:25.566Z,19.5
2016-04-23T00:09:25.553Z,19.57
2016-04-23T00:10:25.541Z,19.5
2016-04-23T00:11:25.512Z,19.5
2016-04-23T00:12:25.484Z,19.53
2016-04-23T00:13:25.486Z,19.5
2016-04-23T00:14:25.473Z,19.53
2016-04-23T00:15:25.460Z,19.5
2016-04-23T00:16:25.431Z,19.42
2016-04-23T00:17:25.403Z,19.45
2016-04-23T00:18:25.390Z,19.45
2016-04-23T00:19:25.378Z,19.52
2016-04-23T00:20:25.380Z,19.43
2016-04-23T00:21:25.336Z,19.53
2016-04-23T00:22:25.307Z,19.42
2016-04-23T00:23:25.294Z,19.43
2016-04-23T00:24:25.297Z,19.53
2016-04-23T00:25:25.269Z,19.43
2016-04-23T00:26:25.255Z,19.52
2016-04-23T00:27:25.227Z,19.47
2016-04-23T00:28:25.198Z,19.45
2016-04-23T00:29:25.200Z,19.53
2016-04-23T00:30:25.172Z,19.45
2016-04-23T00:31:25.144Z,19.46
2016-04-23T00:32:25.131Z,19.46
2016-04-23T00:33:25.118Z,19.46
2016-04-23T00:34:25.089Z,19.45
2016-04-23T00:35:25.092Z,19.47
2016-04-23T00:36:25.063Z,19.47
2016-04-23T00:37:25.051Z,19.49
2016-04-23T00:38:25.038Z,19.46
2016-04-23T00:39:25.009Z,19.43
2016-04-23T00:40:25.012Z,19.42
2016-04-23T00:41:24.968Z,19.46
2016-04-23T00:42:24.939Z,19.43
2016-04-23T00:43:24.785Z,19.45
2016-04-23T00:44:25.116Z,19.34
2016-04-23T00:45:24.901Z,19.43
2016-04-23T00:46:24.871Z,19.42
2016-04-23T00:47:24.874Z,19.35
2016-04-23T00:48:24.862Z,19.39
2016-04-23T00:49:24.817Z,19.4
2016-04-23T00:50:24.804Z,19.31
2016-04-23T00:51:24.791Z,19.4
2016-04-23T00:52:25.123Z,19.35
2016-04-23T00:53:24.750Z,19.28
2016-04-23T00:54:24.737Z,19.35
2016-04-23T00:55:24.708Z,19.4
2016-04-23T00:56:24.727Z,19.35
2016-04-23T00:57:24.667Z,19.42
2016-04-23T00:58:24.653Z,19.38
2016-04-23T00:59:24.641Z,19.35
2016-04-23T01:00:25.144Z,19.35
2016-04-23T01:01:24.616Z,19.35
2016-04-23T01:02:24.664Z,19.31
2016-04-23T01:03:24.573Z,19.34
2016-04-23T01:04:24.544Z,19.35
2016-04-23T01:05:24.517Z,19.28
2016-04-23T01:06:24.519Z,19.4
2016-04-23T01:07:24.490Z,19.35
2016-04-23T01:08:25.135Z,19.4
2016-04-23T01:09:24.465Z,19.28
2016-04-23T01:10:24.436Z,19.31
2016-04-23T01:11:24.423Z,19.3
2016-04-23T01:12:24.411Z,19.27
2016-04-23T01:13:24.382Z,19.25
2016-04-23T01:14:24.353Z,19.24
2016-04-23T01:15:24.356Z,19.25
2016-04-23T01:16:24.420Z,19.28
2016-04-23T01:17:24.315Z,19.3
2016-04-23T01:18:24.286Z,19.3
2016-04-23T01:19:24.273Z,19.28
2016-04-23T01:20:24.260Z,19.24
2016-04-23T01:21:24.232Z,19.32
2016-04-23T01:22:24.218Z,19.25
2016-04-23T01:23:24.189Z,19.24
2016-04-23T01:24:24.443Z,19.23
2016-04-23T01:25:24.164Z,19.27
2016-04-23T01:26:24.167Z,19.23
2016-04-23T01:27:24.138Z,19.27
2016-04-23T01:28:24.109Z,19.25
2016-04-23T01:29:24.112Z,19.2
2016-04-23T01:30:24.099Z,19.2
2016-04-23T01:31:24.055Z,19.15
2016-04-23T01:32:24.449Z,19.23
2016-04-23T01:33:24.014Z,19.23
2016-04-23T01:34:24.000Z,19.16
2016-04-23T01:35:23.988Z,19.15
2016-04-23T01:36:23.975Z,19.17
2016-04-23T01:37:23.930Z,19.21
2016-04-23T01:38:23.933Z,19.27
2016-04-23T01:39:24.061Z,19.28
2016-04-23T01:40:23.891Z,19.3
2016-04-23T01:41:23.879Z,19.28
2016-04-23T01:42:23.851Z,19.2
2016-04-23T01:43:23.837Z,19.17
2016-04-23T01:44:23.824Z,19.21
2016-04-23T01:45:23.796Z,19.17
2016-04-23T01:46:23.783Z,19.2
2016-04-23T01:47:24.067Z,19.17
2016-04-23T01:48:23.726Z,19.21
2016-04-23T01:49:23.729Z,19.16
2016-04-23T01:50:23.700Z,19.27
2016-04-23T01:51:23.687Z,19.23
2016-04-23T01:52:23.673Z,19.16
2016-04-23T01:53:23.662Z,19.12
2016-04-23T01:54:23.648Z,19.16
2016-04-23T01:55:24.088Z,19.21
2016-04-23T01:56:23.607Z,19.15
2016-04-23T01:57:23.578Z,19.24
2016-04-23T01:58:23.565Z,19.17
2016-04-23T01:59:23.536Z,19.15
2016-04-23T02:00:23.525Z,19.13
2016-04-23T02:01:23.511Z,19.13
2016-04-23T02:02:23.482Z,19.17
2016-04-23T02:03:24.063Z,19.3
2016-04-23T02:04:23.440Z,19.24
2016-04-23T02:05:23.444Z,19.12
2016-04-23T02:06:23.430Z,19.28
2016-04-23T02:07:23.402Z,19.16
2016-04-23T02:08:23.374Z,19.21
2016-04-23T02:09:23.361Z,19.17
2016-04-23T02:10:23.332Z,19.24
2016-04-23T02:11:23.318Z,19.16
2016-04-23T02:12:23.307Z,19.1
2016-04-23T02:13:23.293Z,19.2
2016-04-23T02:14:23.265Z,19.16
2016-04-23T02:15:23.235Z,19.15
2016-04-23T02:16:23.238Z,19.17
2016-04-23T02:17:23.210Z,19.2
2016-04-23T02:18:23.197Z,19.15
2016-04-23T02:19:23.325Z,19.15
2016-04-23T02:20:23.156Z,19.23
2016-04-23T02:21:23.127Z,19.13
2016-04-23T02:22:23.264Z,19.16
2016-04-23T02:23:23.111Z,19.1
2016-04-23T02:24:23.067Z,19.15
2016-04-23T02:25:23.053Z,19.16
2016-04-23T02:26:23.041Z,19.15
2016-04-23T02:27:23.371Z,19.21
2016-04-23T02:28:23.016Z,19.12
2016-04-23T02:29:22.986Z,19.13
2016-04-23T02:30:22.958Z,19.15
2016-04-23T02:31:22.945Z,19.2
2016-04-23T02:32:22.932Z,19.07
2016-04-23T02:33:22.904Z,19.1
2016-04-23T02:34:22.952Z,19.2
2016-04-23T02:35:23.346Z,19.12
2016-04-23T02:36:22.849Z,19.15
2016-04-23T02:37:22.836Z,19.1
2016-04-23T02:38:22.823Z,19.12
2016-04-23T02:39:22.795Z,19.15
2016-04-23T02:40:22.782Z,19.07
2016-04-23T02:41:22.768Z,19.23
2016-04-23T02:42:22.943Z,19.17
2016-04-23T02:43:22.727Z,19.09
2016-04-23T02:44:22.699Z,19.17
2016-04-23T02:45:22.686Z,19.15
2016-04-23T02:46:22.673Z,19.1
2016-04-23T02:47:22.660Z,19.13
2016-04-23T02:48:22.631Z,19.07
2016-04-23T02:49:22.618Z,19.07
2016-04-23T02:50:22.949Z,19.15
2016-04-23T02:51:22.593Z,19.12
2016-04-23T02:52:22.580Z,19.13
2016-04-23T02:53:22.535Z,19.13
2016-04-23T02:54:22.523Z,19.1
2016-04-23T02:55:22.509Z,19.12
2016-04-23T02:56:22.481Z,19.12
2016-04-23T02:57:22.468Z,18.97
2016-04-23T02:58:23.003Z,18.99
2016-04-23T02:59:22.442Z,18.97
2016-04-23T03:00:22.413Z,19.01
2016-04-23T03:01:22.416Z,18.99
2016-04-23T03:02:22.372Z,19.06
2016-04-23T03:03:22.360Z,19.05
2016-04-23T03:04:22.346Z,18.99
2016-04-23T03:05:22.349Z,18.99
2016-04-23T03:06:23.055Z,18.93
2016-04-23T03:07:22.276Z,18.97
2016-04-23T03:08:22.263Z,18.93
2016-04-23T03:09:22.251Z,18.99
2016-04-23T03:10:22.238Z,18.91
2016-04-23T03:11:22.224Z,19.06
2016-04-23T03:12:22.195Z,18.96
2016-04-23T03:13:22.183Z,18.96
2016-04-23T03:14:22.264Z,19.02
2016-04-23T03:15:22.141Z,18.96
2016-04-23T03:16:22.113Z,18.96
2016-04-23T03:17:22.100Z,19.01
2016-04-23T03:18:22.071Z,18.97
2016-04-23T03:19:22.074Z,18.91
2016-04-23T03:20:22.046Z,18.99
2016-04-23T03:21:22.033Z,19.02
2016-04-23T03:22:22.254Z,18.96
2016-04-23T03:23:21.991Z,18.96
2016-04-23T03:24:21.962Z,18.97
2016-04-23T03:25:21.949Z,18.96
2016-04-23T03:26:21.921Z,18.97
2016-04-23T03:27:21.909Z,18.99
2016-04-23T03:28:21.911Z,18.99
2016-04-23T03:29:21.883Z,18.86
2016-04-23T03:30:22.260Z,19.01
2016-04-23T03:31:21.841Z,18.99
2016-04-23T03:32:21.844Z,18.97
2016-04-23T03:33:21.799Z,18.94
2016-04-23T03:34:21.786Z,18.94
2016-04-23T03:35:21.774Z,18.91
2016-04-23T03:36:21.745Z,18.87
2016-04-23T03:37:21.732Z,18.94
2016-04-23T03:38:21.704Z,18.87
2016-04-23T03:39:21.691Z,18.96
2016-04-23T03:40:21.677Z,18.91
2016-04-23T03:41:21.664Z,18.84
2016-04-23T03:42:21.635Z,18.87
2016-04-23T03:43:21.624Z,18.86
2016-04-23T03:44:21.610Z,18.99
2016-04-23T03:45:21.582Z,18.91
2016-04-23T03:46:21.568Z,18.9
2016-04-23T03:47:21.556Z,18.86
2016-04-23T03:48:21.527Z,18.87
2016-04-23T03:49:21.498Z,18.86
2016-04-23T03:50:21.486Z,18.86
2016-04-23T03:51:21.473Z,18.87
2016-04-23T03:52:21.460Z,18.89
2016-04-23T03:53:21.431Z,18.86
2016-04-23T03:54:21.434Z,18.86
2016-04-23T03:55:21.393Z,18.91
2016-04-23T03:56:21.365Z,18.86
2016-04-23T03:57:21.352Z,18.9
2016-04-23T03:58:21.339Z,18.87
2016-04-23T03:59:21.343Z,18.82
2016-04-23T04:00:21.297Z,18.87
2016-04-23T04:01:21.285Z,18.83
2016-04-23T04:02:21.257Z,18.87
2016-04-23T04:03:21.290Z,18.76
2016-04-23T04:04:21.214Z,18.83
2016-04-23T04:05:21.201Z,18.74
2016-04-23T04:06:21.189Z,18.86
2016-04-23T04:07:21.160Z,18.78
2016-04-23T04:08:21.163Z,18.75
2016-04-23T04:09:21.134Z,18.76
2016-04-23T04:10:21.105Z,18.83
2016-04-23T04:11:21.296Z,18.75
2016-04-23T04:12:21.080Z,18.79
2016-04-23T04:13:21.067Z,18.82
2016-04-23T04:14:21.054Z,18.84
2016-04-23T04:15:21.010Z,18.78
2016-04-23T04:16:21.028Z,18.82
2016-04-23T04:17:20.984Z,18.76
2016-04-23T04:18:20.955Z,18.75
2016-04-23T04:19:21.302Z,18.78
2016-04-23T04:20:20.929Z,18.75
2016-04-23T04:21:20.916Z,18.78
2016-04-23T04:22:20.888Z,18.79
2016-04-23T04:23:20.875Z,18.78
2016-04-23T04:24:20.847Z,18.76
2016-04-23T04:25:20.849Z,18.72
2016-04-23T04:26:20.821Z,18.76
2016-04-23T04:27:21.338Z,18.74
2016-04-23T04:28:20.779Z,18.71
2016-04-23T04:29:20.766Z,18.74
2016-04-23T04:30:20.754Z,18.78
2016-04-23T04:31:20.725Z,18.71
2016-04-23T04:32:20.696Z,18.75
2016-04-23T04:33:20.684Z,18.68
2016-04-23T04:34:20.670Z,18.71
2016-04-23T04:35:21.345Z,18.78
2016-04-23T04:36:20.628Z,18.71
2016-04-23T04:37:20.600Z,18.71
2016-04-23T04:38:20.587Z,18.76
2016-04-23T04:39:20.575Z,18.71
2016-04-23T04:40:20.562Z,18.71
2016-04-23T04:41:20.533Z,18.68
2016-04-23T04:42:20.520Z,18.76
2016-04-23T04:43:20.647Z,18.74
2016-04-23T04:44:20.478Z,18.62
2016-04-23T04:45:20.466Z,18.71
2016-04-23T04:46:20.453Z,18.65
2016-04-23T04:47:20.425Z,18.62
2016-04-23T04:48:20.411Z,18.62
2016-04-23T04:49:20.383Z,18.75
2016-04-23T04:50:20.369Z,18.64
2016-04-23T04:51:20.638Z,18.72
2016-04-23T04:52:20.327Z,18.62
2016-04-23T04:53:20.299Z,18.62
2016-04-23T04:54:20.286Z,18.65
2016-04-23T04:55:20.274Z,18.62
2016-04-23T04:56:20.246Z,18.62
2016-04-23T04:57:20.248Z,18.56
2016-04-23T04:58:20.266Z,18.59
2016-04-23T04:59:20.659Z,18.71
2016-04-23T05:00:20.177Z,18.64
2016-04-23T05:01:20.165Z,18.72
2016-04-23T05:02:20.152Z,18.62
2016-04-23T05:03:20.108Z,18.59
2016-04-23T05:04:20.110Z,18.59
2016-04-23T05:05:20.082Z,18.66
2016-04-23T05:06:20.209Z,18.62
2016-04-23T05:07:20.041Z,18.6
2016-04-23T05:08:20.027Z,18.64
2016-04-23T05:09:20.014Z,18.64
2016-04-23T05:10:19.986Z,18.75
2016-04-23T05:11:19.973Z,18.65
2016-04-23T05:12:19.959Z,18.6
2016-04-23T05:13:19.931Z,18.6
2016-04-23T05:14:20.262Z,18.62
2016-04-23T05:15:19.890Z,18.6
2016-04-23T05:16:19.892Z,18.57
2016-04-23T05:17:19.864Z,18.68
2016-04-23T05:18:19.836Z,18.62
2016-04-23T05:19:19.823Z,18.66
2016-04-23T05:20:19.810Z,18.59
2016-04-23T05:21:19.781Z,18.66
2016-04-23T05:22:20.268Z,18.66
2016-04-23T05:23:19.755Z,18.68
2016-04-23T05:24:19.726Z,18.64
2016-04-23T05:25:19.713Z,18.66
2016-04-23T05:26:19.701Z,18.66
2016-04-23T05:27:19.688Z,18.66
2016-04-23T05:28:19.644Z,18.65
2016-04-23T05:29:19.630Z,18.6
2016-04-23T05:30:20.274Z,18.64
2016-04-23T05:31:19.589Z,18.59
2016-04-23T05:32:19.576Z,18.64
2016-04-23T05:33:19.563Z,18.64
2016-04-23T05:34:19.535Z,18.66
2016-04-23T05:35:19.521Z,18.65
2016-04-23T05:36:19.509Z,18.6
2016-04-23T05:37:19.481Z,18.56
2016-04-23T05:38:19.561Z,18.56
2016-04-23T05:39:19.454Z,18.66
2016-04-23T05:40:19.442Z,18.62
2016-04-23T05:41:19.413Z,18.56
2016-04-23T05:42:19.400Z,18.6
2016-04-23T05:43:19.372Z,18.56
2016-04-23T05:44:19.359Z,18.53
2016-04-23T05:45:19.330Z,18.54
2016-04-23T05:46:19.567Z,18.59
2016-04-23T05:47:19.288Z,18.6
2016-04-23T05:48:19.276Z,18.57
2016-04-23T05:49:19.247Z,18.56
2016-04-23T05:50:19.234Z,18.62
2016-04-23T05:51:19.222Z,18.62
2016-04-23T05:52:19.208Z,18.66
2016-04-23T05:53:19.180Z,18.64
2016-04-23T05:54:19.572Z,18.6
2016-04-23T05:55:19.138Z,18.57
2016-04-23T05:56:19.125Z,18.56
2016-04-23T05:57:19.112Z,18.5
2016-04-23T05:58:19.083Z,18.56
2016-04-23T05:59:19.071Z,18.56
2016-04-23T06:00:19.058Z,18.51
2016-04-23T06:01:19.123Z,18.49
2016-04-23T06:02:19.016Z,18.57
2016-04-23T06:03:19.003Z,18.59
2016-04-23T06:04:18.991Z,18.53
2016-04-23T06:05:18.962Z,18.53
2016-04-23T06:06:18.949Z,18.56
2016-04-23T06:07:18.921Z,18.64
2016-04-23T06:08:18.892Z,18.64
2016-04-23T06:09:19.192Z,18.49
2016-04-23T06:10:18.865Z,18.49
2016-04-23T06:11:18.853Z,18.53
2016-04-23T06:12:18.840Z,18.53
2016-04-23T06:13:18.811Z,18.57
2016-04-23T06:14:18.798Z,18.5
2016-04-23T06:15:18.770Z,18.51
2016-04-23T06:16:18.757Z,18.56
2016-04-23T06:17:19.275Z,18.56
2016-04-23T06:18:18.591Z,18.51
2016-04-23T06:19:18.686Z,18.57
2016-04-23T06:20:18.675Z,18.53
2016-04-23T06:21:18.662Z,18.47
2016-04-23T06:22:18.633Z,18.53
2016-04-23T06:23:18.620Z,18.47
2016-04-23T06:24:18.622Z,18.53
2016-04-23T06:25:19.188Z,18.5
2016-04-23T06:26:18.565Z,18.53
2016-04-23T06:27:18.536Z,18.53
2016-04-23T06:28:18.524Z,18.5
2016-04-23T06:29:18.511Z,18.59
2016-04-23T06:30:18.482Z,18.56
2016-04-23T06:31:18.469Z,18.56
2016-04-23T06:32:18.457Z,18.53
2016-04-23T06:33:18.443Z,18.54
2016-04-23T06:34:18.399Z,18.5
2016-04-23T06:35:18.386Z,18.57
2016-04-23T06:36:18.374Z,18.54
2016-04-23T06:37:18.361Z,18.56
2016-04-23T06:38:18.332Z,18.53
2016-04-23T06:39:18.319Z,18.56
2016-04-23T06:40:18.290Z,18.46
2016-04-23T06:41:18.465Z,18.49
2016-04-23T06:42:18.280Z,18.53
2016-04-23T06:43:18.236Z,18.5
2016-04-23T06:44:18.223Z,18.59
2016-04-23T06:45:18.210Z,18.49
2016-04-23T06:46:18.181Z,18.53
2016-04-23T06:47:18.169Z,18.44
2016-04-23T06:48:18.156Z,18.54
2016-04-23T06:49:18.470Z,18.53
2016-04-23T06:50:18.114Z,18.5
2016-04-23T06:51:18.100Z,18.51
2016-04-23T06:52:18.089Z,18.54
2016-04-23T06:53:18.045Z,18.49
2016-04-23T06:54:18.031Z,18.54
2016-04-23T06:55:18.034Z,18.47
2016-04-23T06:56:18.005Z,18.5
2016-04-23T06:57:17.977Z,18.49
2016-04-23T06:58:17.964Z,18.51
2016-04-23T06:59:17.935Z,18.53
2016-04-23T07:00:17.907Z,18.36
2016-04-23T07:01:17.894Z,18.46
2016-04-23T07:02:17.881Z,18.51
2016-04-23T07:03:17.883Z,18.49
2016-04-23T07:04:17.840Z,18.5
2016-04-23T07:05:18.826Z,18.47
2016-04-23T07:06:17.813Z,18.5
2016-04-23T07:07:17.784Z,18.53
2016-04-23T07:08:17.772Z,18.51
2016-04-23T07:09:17.744Z,18.42
2016-04-23T07:10:17.731Z,18.56
2016-04-23T07:11:17.718Z,18.51
2016-04-23T07:12:17.689Z,18.51
2016-04-23T07:13:17.676Z,18.5
2016-04-23T07:14:17.663Z,18.51
2016-04-23T07:15:17.650Z,18.53
2016-04-23T07:16:17.622Z,18.49
2016-04-23T07:17:17.609Z,18.5
2016-04-23T07:18:17.581Z,18.53
2016-04-23T07:19:17.551Z,18.49
2016-04-23T07:20:17.539Z,18.49
2016-04-23T07:21:17.510Z,18.53
2016-04-23T07:22:17.497Z,18.54
2016-04-23T07:23:17.484Z,18.54
2016-04-23T07:24:17.472Z,18.53
2016-04-23T07:25:17.442Z,18.46
2016-04-23T07:26:17.445Z,18.57
2016-04-23T07:27:17.401Z,18.54
2016-04-23T07:28:17.388Z,18.54
2016-04-23T07:29:17.375Z,18.53
2016-04-23T07:30:17.503Z,18.51
2016-04-23T07:31:17.333Z,18.51
2016-04-23T07:32:17.321Z,18.39
2016-04-23T07:33:17.324Z,18.53
2016-04-23T07:34:17.279Z,18.54
2016-04-23T07:35:17.266Z,18.36
2016-04-23T07:36:17.988Z,18.35
2016-04-23T07:37:17.241Z,18.35
2016-04-23T07:38:17.509Z,18.36
2016-04-23T07:39:17.184Z,18.47
2016-04-23T07:40:17.170Z,18.5
2016-04-23T07:41:17.189Z,18.38
2016-04-23T07:42:17.205Z,18.35
2016-04-23T07:43:17.221Z,18.39
2016-04-23T07:44:17.268Z,18.39
2016-04-23T07:45:17.283Z,18.38
2016-04-23T07:46:17.776Z,18.32
2016-04-23T07:47:17.280Z,18.39
2016-04-23T07:48:17.283Z,18.34
2016-04-23T07:49:17.271Z,18.42
2016-04-23T07:50:17.274Z,18.36
2016-04-23T07:51:17.270Z,18.36
2016-04-23T07:52:17.262Z,18.39
2016-04-23T07:53:17.240Z,18.39
2016-04-23T07:54:17.888Z,18.42
2016-04-23T07:55:17.209Z,18.38
2016-04-23T07:56:18.855Z,18.39
2016-04-23T07:57:17.189Z,18.35
2016-04-23T07:58:17.178Z,18.41
2016-04-23T07:59:17.151Z,18.35
2016-04-23T08:00:17.140Z,18.38
2016-04-23T08:01:17.112Z,18.46
2016-04-23T08:02:17.193Z,18.44
2016-04-23T08:03:17.073Z,18.34
2016-04-23T08:04:17.076Z,18.46
2016-04-23T08:05:17.064Z,18.39
2016-04-23T08:06:17.035Z,18.42
2016-04-23T08:07:17.023Z,18.42
2016-04-23T08:08:16.995Z,18.38
2016-04-23T08:09:16.982Z,18.38
2016-04-23T08:10:17.157Z,18.35
2016-04-23T08:11:17.034Z,18.49
2016-04-23T08:12:16.944Z,18.41
2016-04-23T08:13:16.915Z,18.49
2016-04-23T08:14:16.887Z,18.42
2016-04-23T08:15:16.874Z,18.35
2016-04-23T08:16:17.986Z,18.44
2016-04-23T08:17:16.832Z,18.35
2016-04-23T08:18:17.211Z,18.34
2016-04-23T08:19:16.791Z,18.34
2016-04-23T08:20:16.777Z,18.35
2016-04-23T08:21:16.811Z,18.41
2016-04-23T08:22:16.736Z,18.34
2016-04-23T08:23:16.724Z,18.35
2016-04-23T08:24:16.710Z,18.34
2016-04-23T08:25:16.792Z,18.32
2016-04-23T08:26:17.935Z,18.35
2016-04-23T08:27:16.657Z,18.39
2016-04-23T08:28:16.627Z,18.36
2016-04-23T08:29:16.615Z,18.32
2016-04-23T08:30:16.590Z,18.36
2016-04-23T08:31:16.579Z,18.25
2016-04-23T08:32:16.549Z,18.28
2016-04-23T08:33:16.834Z,18.31
2016-04-23T08:34:16.523Z,18.26
2016-04-23T08:35:16.495Z,18.28
2016-04-23T08:36:16.482Z,18.28
2016-04-23T08:37:16.469Z,18.28
2016-04-23T08:38:16.441Z,18.23
2016-04-23T08:39:16.428Z,18.25
2016-04-23T08:40:16.414Z,18.25
2016-04-23T08:41:16.840Z,18.28
2016-04-23T08:42:16.373Z,18.34
2016-04-23T08:43:16.344Z,18.28
2016-04-23T08:44:16.332Z,18.26
2016-04-23T08:45:16.319Z,18.23
2016-04-23T08:46:16.290Z,18.28
2016-04-23T08:47:16.293Z,18.28
2016-04-23T08:48:16.265Z,18.34
2016-04-23T08:49:16.830Z,18.34
2016-04-23T08:50:16.207Z,18.29
2016-04-23T08:51:16.195Z,18.25
2016-04-23T08:52:16.182Z,18.31
2016-04-23T08:53:16.152Z,18.28
2016-04-23T08:54:16.140Z,18.31
2016-04-23T08:55:16.111Z,18.34
2016-04-23T08:56:16.114Z,18.28
2016-04-23T08:57:16.086Z,18.36
2016-04-23T08:58:16.057Z,18.29
2016-04-23T08:59:16.044Z,18.28
2016-04-23T09:00:16.046Z,18.36
2016-04-23T09:01:16.015Z,18.29
2016-04-23T09:02:15.987Z,18.35
2016-04-23T09:03:15.974Z,18.36
2016-04-23T09:04:15.976Z,18.26
2016-04-23T09:05:16.842Z,18.34
2016-04-23T09:06:15.920Z,18.32
2016-04-23T09:07:15.907Z,18.39
2016-04-23T09:08:15.878Z,18.31
2016-04-23T09:09:15.881Z,18.35
2016-04-23T09:10:15.867Z,18.28
2016-04-23T09:11:15.823Z,18.29
2016-04-23T09:12:15.811Z,18.34
2016-04-23T09:13:16.142Z,18.35
2016-04-23T09:14:15.769Z,18.34
2016-04-23T09:15:15.741Z,18.32
2016-04-23T09:16:17.134Z,18.29
2016-04-23T09:17:15.714Z,18.32
2016-04-23T09:18:15.686Z,18.36
2016-04-23T09:19:15.658Z,18.34
2016-04-23T09:20:15.755Z,18.32
2016-04-23T09:21:17.053Z,18.31
2016-04-23T09:22:15.619Z,18.32
2016-04-23T09:23:15.605Z,18.35
2016-04-23T09:24:15.577Z,18.38
2016-04-23T09:25:15.580Z,18.36
2016-04-23T09:26:15.536Z,18.35
2016-04-23T09:27:15.352Z,18.35
2016-04-23T09:28:15.697Z,18.36
2016-04-23T09:29:15.481Z,18.29
2016-04-23T09:30:15.453Z,18.32
2016-04-23T09:31:15.455Z,18.29
2016-04-23T09:32:15.599Z,18.36
2016-04-23T09:33:15.430Z,18.35
2016-04-23T09:34:15.417Z,18.32
2016-04-23T09:35:15.857Z,18.36
2016-04-23T09:36:15.751Z,18.35
2016-04-23T09:37:15.346Z,18.28
2016-04-23T09:38:15.318Z,18.31
2016-04-23T09:39:15.305Z,18.34
2016-04-23T09:40:15.261Z,18.23
2016-04-23T09:41:21.126Z,18.26
2016-04-23T09:42:17.189Z,18.34
2016-04-23T09:43:15.409Z,18.32
2016-04-23T09:44:15.740Z,18.25
2016-04-23T09:45:15.197Z,18.28
2016-04-23T09:46:15.167Z,18.26
2016-04-23T09:47:15.139Z,18.25
2016-04-23T09:48:15.126Z,18.28
2016-04-23T09:49:15.129Z,18.28
2016-04-23T09:50:15.086Z,18.26
2016-04-23T09:51:15.072Z,18.31
2016-04-23T09:52:15.794Z,18.32
2016-04-23T09:53:15.030Z,18.31
2016-04-23T09:54:15.017Z,18.32
2016-04-23T09:55:14.989Z,18.32
2016-04-23T09:56:14.976Z,18.28
2016-04-23T09:57:14.807Z,18.31
2016-04-23T09:58:15.028Z,18.25
2016-04-23T09:59:14.905Z,18.23
2016-04-23T10:00:15.049Z,18.31
2016-04-23T10:01:14.880Z,18.35
2016-04-23T10:02:14.868Z,18.42
2016-04-23T10:03:14.871Z,18.51
2016-04-23T10:04:14.826Z,18.64
2016-04-23T10:05:14.812Z,18.5
2016-04-23T10:06:14.784Z,18.51
2016-04-23T10:07:14.771Z,18.47
2016-04-23T10:08:16.602Z,18.5
2016-04-23T10:09:14.573Z,18.53
2016-04-23T10:10:14.592Z,18.53
2016-04-23T10:11:14.720Z,18.59
2016-04-23T10:12:14.659Z,18.69
2016-04-23T10:13:14.647Z,18.76
2016-04-23T10:14:14.634Z,18.74
2016-04-23T10:15:14.620Z,18.72
2016-04-23T10:16:16.623Z,18.9
2016-04-23T10:17:16.017Z,18.86
2016-04-23T10:18:14.550Z,18.97
2016-04-23T10:19:14.803Z,19.02
2016-04-23T10:20:14.634Z,19.12
2016-04-23T10:21:14.512Z,19.12
2016-04-23T10:22:14.499Z,19.17
2016-04-23T10:23:14.469Z,19.17
2016-04-23T10:24:14.461Z,19.1
2016-04-23T10:25:14.464Z,19.21
2016-04-23T10:26:14.419Z,19.13
2016-04-23T10:27:14.391Z,19.31
2016-04-23T10:28:14.377Z,19.27
2016-04-23T10:29:14.364Z,19.45
2016-04-23T10:30:14.336Z,19.46
2016-04-23T10:31:14.323Z,19.58
2016-04-23T10:32:14.310Z,19.58
2016-04-23T10:33:14.297Z,19.58
2016-04-23T10:34:14.035Z,19.57
2016-04-23T10:35:15.943Z,19.53
2016-04-23T10:36:14.227Z,19.45
2016-04-23T10:37:14.214Z,19.42
2016-04-23T10:38:14.185Z,19.49
2016-04-23T10:39:14.173Z,19.39
2016-04-23T10:40:14.143Z,19.31
2016-04-23T10:41:14.131Z,19.25
2016-04-23T10:42:14.134Z,19.27
2016-04-23T10:43:14.090Z,19.23
2016-04-23T10:44:14.092Z,19.2
2016-04-23T10:45:14.048Z,19.17
2016-04-23T10:46:14.035Z,19.16
2016-04-23T10:47:14.007Z,19.24
2016-04-23T10:48:13.994Z,19.28
2016-04-23T10:49:14.153Z,19.16
2016-04-23T10:50:15.015Z,19.17
2016-04-23T10:51:13.940Z,19.15
2016-04-23T10:52:13.926Z,19.17
2016-04-23T10:53:13.914Z,19.25
2016-04-23T10:54:13.885Z,19.13
2016-04-23T10:55:13.873Z,19.17
2016-04-23T10:56:13.844Z,19.15
2016-04-23T10:57:14.080Z,19.09
2016-04-23T10:58:13.833Z,19.06
2016-04-23T10:59:13.789Z,19.01
2016-04-23T11:00:13.777Z,18.94
2016-04-23T11:01:13.747Z,18.99
2016-04-23T11:02:13.735Z,19.02
2016-04-23T11:03:13.721Z,18.94
2016-04-23T11:04:14.521Z,18.97
2016-04-23T11:05:14.165Z,19.06
2016-04-23T11:06:13.668Z,19.12
2016-04-23T11:07:13.655Z,19.1
2016-04-23T11:08:13.626Z,19.17
2016-04-23T11:09:13.597Z,19.21
2016-04-23T11:10:13.584Z,19.2
2016-04-23T11:11:13.571Z,19.16
2016-04-23T11:12:13.543Z,19.24
2016-04-23T11:13:14.093Z,19.25
2016-04-23T11:14:13.502Z,19.27
2016-04-23T11:15:13.503Z,19.27
2016-04-23T11:16:13.475Z,19.31
2016-04-23T11:17:13.447Z,19.25
2016-04-23T11:18:13.418Z,19.38
2016-04-23T11:19:13.421Z,19.47
2016-04-23T11:20:13.549Z,19.53
2016-04-23T11:21:13.364Z,19.64
2016-04-23T11:22:13.351Z,19.7
2016-04-23T11:23:13.338Z,19.68
2016-04-23T11:24:13.309Z,19.65
2016-04-23T11:25:13.297Z,19.67
2016-04-23T11:26:13.127Z,19.61
2016-04-23T11:27:13.255Z,19.55
2016-04-23T11:28:13.258Z,19.5
2016-04-23T11:29:13.386Z,19.42
2016-04-23T11:30:13.200Z,19.42
2016-04-23T11:31:13.188Z,19.35
2016-04-23T11:32:13.175Z,19.31
2016-04-23T11:33:13.161Z,19.39
2016-04-23T11:34:13.133Z,19.38
2016-04-23T11:35:13.105Z,19.4
2016-04-23T11:36:13.092Z,19.52
2016-04-23T11:37:13.360Z,19.57
2016-04-23T11:38:13.050Z,19.61
2016-04-23T11:39:13.038Z,19.61
2016-04-23T11:40:13.009Z,19.58
2016-04-23T11:41:12.996Z,19.55
2016-04-23T11:42:12.967Z,19.38
2016-04-23T11:43:12.938Z,19.43
2016-04-23T11:44:12.988Z,19.43
2016-04-23T11:45:12.913Z,19.38
2016-04-23T11:46:12.901Z,19.28
2016-04-23T11:47:12.887Z,19.39
2016-04-23T11:48:12.858Z,19.39
2016-04-23T11:49:12.846Z,19.39
2016-04-23T11:50:12.676Z,19.32
2016-04-23T11:51:12.820Z,19.43
2016-04-23T11:52:12.995Z,19.49
2016-04-23T11:53:12.779Z,19.47
2016-04-23T11:54:12.750Z,19.6
2016-04-23T11:55:12.720Z,19.7
2016-04-23T11:56:12.708Z,19.86
2016-04-23T11:57:12.695Z,19.98
2016-04-23T11:58:12.683Z,20.13
2016-04-23T11:59:12.653Z,20.16
2016-04-23T12:00:13.031Z,20.05
2016-04-23T12:01:12.628Z,20.17
2016-04-23T12:02:12.600Z,20.15
2016-04-23T12:03:12.586Z,20.17
2016-04-23T12:04:12.558Z,20.17
2016-04-23T12:05:12.591Z,20.26
2016-04-23T12:06:12.516Z,20.16
2016-04-23T12:07:12.972Z,20.19
2016-04-23T12:08:12.475Z,20.19
2016-04-23T12:09:12.462Z,20.26
2016-04-23T12:10:12.449Z,20.33
2016-04-23T12:11:12.436Z,20.37
2016-04-23T12:12:12.407Z,20.3
2016-04-23T12:13:12.394Z,20.42
2016-04-23T12:14:12.365Z,20.53
2016-04-23T12:15:13.009Z,20.63
2016-04-23T12:16:12.356Z,20.68
2016-04-23T12:17:12.327Z,20.71
2016-04-23T12:18:12.298Z,20.61
2016-04-23T12:19:12.270Z,20.61
2016-04-23T12:20:12.319Z,20.48
2016-04-23T12:21:12.245Z,20.5
2016-04-23T12:22:12.247Z,20.37
2016-04-23T12:23:12.906Z,20.34
2016-04-23T12:24:12.189Z,20.2
2016-04-23T12:25:12.176Z,20.13
2016-04-23T12:26:12.148Z,20.08
2016-04-23T12:27:12.136Z,19.92
2016-04-23T12:28:12.123Z,19.94
2016-04-23T12:29:12.094Z,19.86
2016-04-23T12:30:12.080Z,19.79
2016-04-23T12:31:12.177Z,19.79
2016-04-23T12:32:12.039Z,19.78
2016-04-23T12:33:12.027Z,19.75
2016-04-23T12:34:11.998Z,19.71
2016-04-23T12:35:12.188Z,19.82
2016-04-23T12:36:11.988Z,19.72
2016-04-23T12:37:11.944Z,19.82
2016-04-23T12:38:11.930Z,19.82
2016-04-23T12:39:12.058Z,19.78
2016-04-23T12:40:11.904Z,19.82
2016-04-23T12:41:11.860Z,19.8
2016-04-23T12:42:11.847Z,19.67
2016-04-23T12:43:11.835Z,19.82
2016-04-23T12:44:11.806Z,19.64
2016-04-23T12:45:11.809Z,19.68
2016-04-23T12:46:11.780Z,19.61
2016-04-23T12:47:12.065Z,19.64
2016-04-23T12:48:11.738Z,19.71
2016-04-23T12:49:11.726Z,19.71
2016-04-23T12:50:11.931Z,19.68
2016-04-23T12:51:11.684Z,19.78
2016-04-23T12:52:11.671Z,19.83
2016-04-23T12:53:11.502Z,19.92
2016-04-23T12:54:11.629Z,19.97